createdAt,value
2017-06-03T08:41:20.771Z,77.30
2017-06-03T08:43:48.227Z,84.80
2017-06-03T08:46:15.690Z,84.50
2017-06-03T08:48:43.160Z,84.40
2017-06-03T08:51:11.019Z,86.60
2017-06-03T08:53:38.875Z,86.50
2017-06-03T08:56:06.719Z,85.80
2017-06-03T08:58:34.159Z,85.80
2017-06-03T09:01:01.807Z,86.30
2017-06-03T09:03:30.334Z,85.10
2017-06-03T09:05:57.769Z,85.80
2017-06-03T09:08:25.219Z,85.90
2017-06-03T09:10:52.680Z,86.20
2017-06-03T09:13:20.127Z,86.30
2017-06-03T09:15:48.416Z,86.60
2017-06-03T09:18:15.892Z,86.50
2017-06-03T09:20:43.353Z,86.10
2017-06-03T09:23:11.183Z,84.80
2017-06-03T09:25:38.914Z,84.80
2017-06-03T09:28:07.324Z,85.10
2017-06-03T09:30:35.303Z,85.70
2017-06-03T09:33:02.816Z,85.90
2017-06-03T09:35:30.471Z,85.50
2017-06-03T09:37:57.913Z,85.30
2017-06-03T09:40:25.365Z,86.60
2017-06-03T09:42:52.846Z,86.00
2017-06-03T09:45:20.626Z,85.80
2017-06-03T09:47:48.594Z,85.90
2017-06-03T09:50:16.067Z,86.50
2017-06-03T09:52:43.538Z,85.40
2017-06-03T09:55:11.387Z,86.60
2017-06-03T09:57:38.859Z,86.60
2017-06-03T10:00:06.699Z,86.10
2017-06-03T10:02:34.158Z,86.10
2017-06-03T10:05:01.930Z,86.10
2017-06-03T10:07:29.394Z,85.40
2017-06-03T10:09:57.267Z,85.40
2017-06-03T10:12:25.374Z,85.30
2017-06-03T10:14:52.828Z,85.30
2017-06-03T10:17:20.279Z,85.90
2017-06-03T10:19:48.148Z,86.20
2017-06-03T10:22:15.612Z,85.90
2017-06-03T10:24:43.067Z,86.00
2017-06-03T10:27:10.556Z,86.00
2017-06-03T10:29:38.023Z,86.90
2017-06-03T10:32:05.888Z,86.70
2017-06-03T10:34:33.351Z,86.70
2017-06-03T10:37:01.173Z,86.30
2017-06-03T10:39:28.631Z,86.70
2017-06-03T10:41:56.111Z,87.20
2017-06-03T10:44:23.953Z,86.60
2017-06-03T10:46:51.401Z,86.60
2017-06-03T10:49:18.890Z,86.30
2017-06-03T10:51:46.327Z,86.50
2017-06-03T10:54:13.767Z,87.70
2017-06-03T10:56:41.444Z,87.10
2017-06-03T10:59:08.895Z,87.10
2017-06-03T11:01:36.349Z,87.20
2017-06-03T11:04:04.184Z,87.20
2017-06-03T11:06:32.265Z,88.10
2017-06-03T11:09:00.014Z,87.90
2017-06-03T11:11:27.895Z,88.10
2017-06-03T11:13:55.765Z,88.40
2017-06-03T11:16:23.233Z,88.50
2017-06-03T11:18:50.960Z,88.50
2017-06-03T11:21:18.722Z,88.20
2017-06-03T11:23:46.188Z,88.40
2017-06-03T11:26:13.744Z,88.20
2017-06-03T11:28:41.192Z,88.50
2017-06-03T11:31:08.691Z,88.20
2017-06-03T11:33:39.571Z,88.60
2017-06-03T11:36:07.022Z,88.60
2017-06-03T11:38:34.472Z,88.10
2017-06-03T11:41:02.222Z,88.20
2017-06-03T11:43:30.063Z,87.80
2017-06-03T11:45:57.528Z,87.80
2017-06-03T11:48:25.422Z,87.90
2017-06-03T11:50:53.481Z,87.90
2017-06-03T11:53:20.919Z,88.40
2017-06-03T11:55:48.889Z,87.10
2017-06-03T11:58:16.336Z,87.10
2017-06-03T12:00:44.485Z,86.90
2017-06-03T12:03:11.935Z,86.90
2017-06-03T12:05:39.384Z,87.20
2017-06-03T12:08:07.245Z,88.10
2017-06-03T12:10:34.700Z,88.00
2017-06-03T12:13:02.147Z,87.80
2017-06-03T12:15:29.634Z,88.00
2017-06-03T12:17:57.087Z,88.10
2017-06-03T12:20:24.530Z,87.80
2017-06-03T12:22:52.184Z,87.80
2017-06-03T12:25:19.633Z,87.80
2017-06-03T12:27:47.083Z,87.70
2017-06-03T12:30:14.568Z,87.80
2017-06-03T12:32:42.015Z,87.70
2017-06-03T12:35:09.464Z,87.40
2017-06-03T12:37:37.537Z,87.50
2017-06-03T12:40:05.996Z,88.20
2017-06-03T12:42:33.479Z,87.50
2017-06-03T12:45:00.973Z,87.70
2017-06-03T12:47:28.424Z,87.70
2017-06-03T12:49:56.126Z,86.80
2017-06-03T12:52:24.500Z,86.80
2017-06-03T12:54:52.231Z,86.00
2017-06-03T12:57:19.787Z,86.70
2017-06-03T12:59:48.162Z,85.70
2017-06-03T13:02:15.639Z,85.90
2017-06-03T13:04:43.079Z,83.90
2017-06-03T13:07:11.333Z,84.50
2017-06-03T13:09:39.191Z,83.10
2017-06-03T13:12:07.031Z,82.50
2017-06-03T13:14:34.807Z,82.50
2017-06-03T13:17:02.249Z,81.10
2017-06-03T13:19:29.695Z,79.60
2017-06-03T13:21:57.357Z,79.00
2017-06-03T13:24:24.811Z,79.20
2017-06-03T13:26:52.256Z,80.00
2017-06-03T13:29:21.258Z,80.40
2017-06-03T13:31:48.706Z,80.40
2017-06-03T13:34:16.456Z,79.50
2017-06-03T13:36:44.165Z,78.80
2017-06-03T13:39:11.809Z,79.80
2017-06-03T13:41:39.886Z,79.10
2017-06-03T13:44:07.776Z,77.10
2017-06-03T13:46:35.629Z,78.30
2017-06-03T13:49:04.467Z,77.80
2017-06-03T13:51:32.703Z,77.70
2017-06-03T13:54:00.148Z,77.70
2017-06-03T13:56:27.987Z,79.00
2017-06-03T13:58:55.742Z,79.00
2017-06-03T14:01:23.558Z,77.40
2017-06-03T14:03:51.143Z,75.30
2017-06-03T14:06:18.607Z,74.80
2017-06-03T14:08:46.863Z,74.10
2017-06-03T14:11:14.756Z,74.70
2017-06-03T14:13:42.194Z,75.20
2017-06-03T14:16:09.794Z,74.50
2017-06-03T14:18:37.236Z,76.90
2017-06-03T14:21:06.172Z,77.80
2017-06-03T14:23:33.648Z,77.40
2017-06-03T14:26:01.099Z,78.90
2017-06-03T14:28:28.780Z,79.20
2017-06-03T14:30:56.278Z,81.20
2017-06-03T14:33:25.038Z,80.90
2017-06-03T14:35:52.500Z,80.90
2017-06-03T14:38:19.969Z,80.30
2017-06-03T14:40:47.432Z,81.40
2017-06-03T14:43:15.292Z,81.80
2017-06-03T14:45:43.163Z,81.40
2017-06-03T14:48:10.626Z,81.40
2017-06-03T14:50:38.102Z,81.80
2017-06-03T14:53:05.595Z,80.20
2017-06-03T14:55:33.036Z,80.00
2017-06-03T14:58:00.494Z,80.20
2017-06-03T15:00:33.255Z,81.10
2017-06-03T15:03:00.972Z,80.30
2017-06-03T15:05:29.454Z,81.60
2017-06-03T15:07:57.348Z,80.60
2017-06-03T15:10:24.930Z,80.60
2017-06-03T15:12:52.407Z,81.10
2017-06-03T15:15:20.206Z,82.00
2017-06-03T15:17:47.689Z,82.70
2017-06-03T15:20:15.171Z,82.20
2017-06-03T15:22:42.691Z,82.20
2017-06-03T15:25:10.195Z,81.80
2017-06-03T15:27:38.087Z,81.50
2017-06-03T15:30:05.602Z,81.50
2017-06-03T15:32:33.058Z,82.00
2017-06-03T15:35:01.011Z,82.80
2017-06-03T15:37:29.699Z,82.20
2017-06-03T15:39:57.160Z,82.10
2017-06-03T15:42:24.627Z,82.60
2017-06-03T15:44:53.234Z,82.50
2017-06-03T15:47:20.694Z,82.40
2017-06-03T15:49:49.259Z,82.40
2017-06-03T15:52:16.823Z,82.40
2017-06-03T15:54:44.334Z,82.00
2017-06-03T15:57:11.804Z,82.10
2017-06-03T15:59:39.550Z,82.40
2017-06-03T16:02:07.022Z,82.80
2017-06-03T16:04:34.482Z,82.80
2017-06-03T16:07:01.979Z,82.70
2017-06-03T16:09:29.418Z,82.30
2017-06-03T16:11:56.889Z,82.90
2017-06-03T16:14:24.795Z,82.80
2017-06-03T16:16:52.245Z,82.90
2017-06-03T16:19:19.710Z,82.50
2017-06-03T16:21:47.311Z,83.40
2017-06-03T16:24:15.132Z,83.50
2017-06-03T16:26:42.601Z,84.20
2017-06-03T16:29:11.233Z,82.90
2017-06-03T16:31:39.091Z,82.80
2017-06-03T16:34:06.566Z,82.80
2017-06-03T16:36:34.281Z,83.20
2017-06-03T16:39:01.732Z,83.30
2017-06-03T16:41:29.184Z,82.90
2017-06-03T16:43:56.697Z,83.40
2017-06-03T16:46:24.381Z,84.00
2017-06-03T16:48:51.843Z,83.40
2017-06-03T16:51:19.331Z,83.70
2017-06-03T16:53:46.786Z,83.80
2017-06-03T16:56:14.250Z,83.60
2017-06-03T16:58:41.840Z,83.80
2017-06-03T17:01:09.290Z,84.40
2017-06-03T17:03:36.757Z,84.30
2017-06-03T17:06:04.242Z,84.60
2017-06-03T17:08:31.714Z,84.70
2017-06-03T17:10:59.238Z,84.60
2017-06-03T17:13:26.737Z,84.60
2017-06-03T17:15:54.807Z,85.20
2017-06-03T17:18:22.262Z,85.20
2017-06-03T17:20:49.725Z,85.10
2017-06-03T17:23:17.964Z,85.90
2017-06-03T17:25:46.327Z,85.90
2017-06-03T17:28:13.820Z,86.00
2017-06-03T17:30:41.851Z,86.20
2017-06-03T17:33:09.700Z,86.20
2017-06-03T17:35:37.161Z,86.00
2017-06-03T17:38:04.858Z,86.00
2017-06-03T17:40:32.321Z,86.30
2017-06-03T17:42:59.902Z,86.70
2017-06-03T17:45:27.999Z,86.60
2017-06-03T17:47:55.457Z,86.70
2017-06-03T17:50:22.919Z,86.50
2017-06-03T17:52:50.509Z,87.00
2017-06-03T17:55:17.960Z,86.70
2017-06-03T17:57:45.427Z,86.60
2017-06-03T18:00:13.863Z,87.20
2017-06-03T18:02:41.312Z,86.60
2017-06-03T18:05:08.782Z,86.80
2017-06-03T18:07:36.755Z,86.40
2017-06-03T18:10:04.215Z,86.90
2017-06-03T18:12:31.674Z,87.20
2017-06-03T18:14:59.259Z,87.30
2017-06-03T18:17:27.616Z,87.20
2017-06-03T18:19:55.082Z,87.20
2017-06-03T18:22:30.374Z,87.20
2017-06-03T18:24:57.834Z,87.80
2017-06-03T18:27:31.086Z,88.00
2017-06-03T18:29:58.542Z,87.90
2017-06-03T18:32:26.024Z,87.90
2017-06-03T18:34:53.535Z,88.00
2017-06-03T18:37:21.153Z,87.80
2017-06-03T18:39:48.638Z,88.10
2017-06-03T18:42:16.176Z,88.00
2017-06-03T18:44:43.745Z,87.90
2017-06-03T18:47:12.130Z,88.10
2017-06-03T18:49:39.880Z,88.20
2017-06-03T18:52:08.059Z,88.10
2017-06-03T18:54:36.011Z,88.10
2017-06-03T18:57:03.673Z,87.60
2017-06-03T18:59:31.157Z,87.80
2017-06-03T19:01:58.648Z,88.10
2017-06-03T19:04:26.611Z,88.60
2017-06-03T19:06:54.156Z,88.20
2017-06-03T19:09:22.068Z,87.30
2017-06-03T19:11:50.439Z,87.30
2017-06-03T19:14:18.077Z,87.40
2017-06-03T19:16:45.700Z,88.20
2017-06-03T19:19:13.359Z,88.10
2017-06-03T19:21:41.358Z,87.90
2017-06-03T19:24:09.295Z,87.90
2017-06-03T19:26:37.150Z,88.10
2017-06-03T19:29:05.962Z,88.40
2017-06-03T19:31:34.227Z,88.80
2017-06-03T19:34:02.277Z,88.80
2017-06-03T19:36:31.964Z,88.80
2017-06-03T19:38:59.803Z,88.90
2017-06-03T19:41:28.636Z,88.70
2017-06-03T19:43:56.513Z,88.50
2017-06-03T19:46:24.414Z,88.50
2017-06-03T19:48:52.494Z,88.70
2017-06-03T19:51:20.560Z,88.50
2017-06-03T19:53:50.029Z,88.90
2017-06-03T19:56:18.080Z,88.80
2017-06-03T19:58:45.954Z,89.20
2017-06-03T20:01:13.723Z,89.20
2017-06-03T20:03:41.654Z,89.20
2017-06-03T20:06:09.476Z,89.40
2017-06-03T20:08:37.273Z,89.30
2017-06-03T20:11:05.723Z,89.20
2017-06-03T20:13:33.610Z,89.20
2017-06-03T20:16:01.821Z,89.10
2017-06-03T20:18:30.051Z,89.10
2017-06-03T20:20:57.774Z,89.30
2017-06-03T20:23:25.570Z,89.10
2017-06-03T20:25:53.537Z,89.00
2017-06-03T20:28:21.650Z,89.10
2017-06-03T20:30:49.472Z,89.10
2017-06-03T20:33:19.021Z,89.00
2017-06-03T20:35:46.850Z,88.70
2017-06-03T20:38:14.958Z,89.20
2017-06-03T20:40:42.851Z,89.20
2017-06-03T20:43:11.599Z,89.00
2017-06-03T20:45:40.351Z,89.10
2017-06-03T20:48:08.143Z,89.10
2017-06-03T20:50:36.486Z,89.10
2017-06-03T20:53:04.175Z,89.10
2017-06-03T20:55:31.974Z,89.00
2017-06-03T20:57:59.634Z,89.10
2017-06-03T21:00:27.364Z,89.40
2017-06-03T21:02:56.298Z,89.50
2017-06-03T21:05:24.199Z,89.30
2017-06-03T21:07:51.764Z,89.40
2017-06-03T21:10:20.381Z,89.30
2017-06-03T21:12:47.955Z,89.30
2017-06-03T21:15:15.786Z,89.10
2017-06-03T21:17:43.314Z,88.80
2017-06-03T21:20:10.830Z,89.10
2017-06-03T21:22:38.440Z,89.40
2017-06-03T21:25:06.871Z,89.40
2017-06-03T21:27:34.481Z,89.20
2017-06-03T21:30:02.462Z,89.40
2017-06-03T21:32:30.273Z,89.40
2017-06-03T21:34:57.772Z,89.40
2017-06-03T21:37:25.233Z,89.60
2017-06-03T21:39:53.035Z,89.20
2017-06-03T21:42:20.515Z,89.30
2017-06-03T21:44:48.012Z,89.40
2017-06-03T21:47:15.495Z,89.20
2017-06-03T21:49:42.965Z,89.20
2017-06-03T21:52:10.633Z,89.40
2017-06-03T21:54:38.357Z,89.40
2017-06-03T21:57:06.168Z,89.50
2017-06-03T21:59:33.630Z,89.30
2017-06-03T22:02:01.390Z,89.40
2017-06-03T22:04:29.108Z,89.30
2017-06-03T22:06:56.576Z,89.20
2017-06-03T22:09:24.019Z,89.30
2017-06-03T22:11:51.496Z,89.30
2017-06-03T22:14:18.949Z,89.40
2017-06-03T22:16:46.907Z,89.40
2017-06-03T22:19:14.777Z,88.90
2017-06-03T22:21:42.216Z,88.90
2017-06-03T22:24:09.700Z,88.60
2017-06-03T22:26:37.398Z,88.60
2017-06-03T22:29:04.857Z,88.50
2017-06-03T22:31:32.555Z,88.70
2017-06-03T22:34:00.205Z,89.00
2017-06-03T22:36:27.687Z,88.70
2017-06-03T22:38:55.127Z,88.90
2017-06-03T22:41:22.706Z,88.90
2017-06-03T22:43:50.151Z,88.80
2017-06-03T22:46:17.593Z,88.90
2017-06-03T22:48:45.085Z,89.10
2017-06-03T22:51:12.541Z,88.70
2017-06-03T22:53:39.985Z,88.40
2017-06-03T22:56:08.468Z,88.80
2017-06-03T22:58:35.932Z,89.30
2017-06-03T23:01:03.387Z,89.40
2017-06-03T23:03:30.873Z,89.20
2017-06-03T23:05:58.316Z,89.40
2017-06-03T23:08:25.775Z,89.30
2017-06-03T23:10:53.280Z,89.10
2017-06-03T23:13:20.733Z,89.40
2017-06-03T23:15:48.196Z,89.30
2017-06-03T23:18:15.758Z,89.00
2017-06-03T23:20:43.203Z,89.30
2017-06-03T23:23:10.644Z,89.10
2017-06-03T23:25:38.112Z,89.10
2017-06-03T23:28:05.680Z,89.00
2017-06-03T23:30:33.115Z,89.20
2017-06-03T23:33:00.710Z,89.00
2017-06-03T23:35:28.161Z,89.00
2017-06-03T23:37:55.624Z,89.10
2017-06-03T23:40:23.358Z,89.20
2017-06-03T23:42:50.809Z,89.00
2017-06-03T23:45:18.253Z,89.10
2017-06-03T23:47:46.715Z,89.00
2017-06-03T23:50:14.160Z,89.30
2017-06-03T23:52:41.605Z,89.30
2017-06-03T23:55:09.378Z,89.20
2017-06-03T23:57:36.843Z,89.30
